CheckWX is a tool to help pilots better visualize weather data.  It is not intended as a substitute for an official pre-flight weather briefing.

04:18:31 UTC

EFKU METAR
Kuopio Airport
Kuopio / Siilinjärvi, Finland
Current

29 mins ago

EFKU 250350Z AUTO 24003KT CAVOK 05/01 Q1026
Observed
Apr-25 @ 03:50 UTC
Wind
  • 240° at 3 KTS
Visibility
10,000+ meters
Flight Rules
VFR
Cloud Levels
  • Clear skies
Temperature
C / 41°F
Dewpoint
C / 34°F
Humidity
76%
Altimeter
30.3" Hg
Pressure
1025.92 hPa
Previous

59 mins ago

EFKU 250320Z AUTO VRB00KT CAVOK 04/00 Q1025
Observed
Apr-25 @ 03:20 UTC
Visibility
10,000+ meters
Flight Rules
VFR
Cloud Levels
  • Clear skies
Temperature
C / 39°F
Dewpoint
C / 32°F
Humidity
75%
Altimeter
30.27" Hg
Pressure
1024.92 hPa
Previous

1 hour ago

EFKU 250250Z AUTO 32004KT 180V360 CAVOK 04/00 Q1026
Observed
Apr-25 @ 02:50 UTC
Wind
  • 320° at 4 KTS
Visibility
10,000+ meters
Flight Rules
VFR
Cloud Levels
  • Clear skies
Temperature
C / 39°F
Dewpoint
C / 32°F
Humidity
75%
Altimeter
30.3" Hg
Pressure
1025.92 hPa